Time,TemperatureF,DewpointF,PressureIn,WindDirection,WindDirectionDegrees,WindSpeedMPH,WindSpeedGustMPH,Humidity,HourlyPrecipIn,Conditions,Clouds,dailyrainin,SoftwareType,DateUTC
2013-10-31 00:00:00,32.5,29.9,29.82,West,281,0.0,0.0,90,0.00,,,0.01,Wunderground v.1.15,2013-10-31 05:00:00,
2013-10-31 00:05:00,32.4,30.1,29.82,West,281,0.0,2.0,91,0.00,,,0.01,Wunderground v.1.15,2013-10-31 05:05:00,
2013-10-31 00:10:00,32.4,29.8,29.81,West,281,0.0,2.0,90,0.00,,,0.01,Wunderground v.1.15,2013-10-31 05:10:00,
2013-10-31 00:20:00,32.5,30.2,29.81,West,281,0.0,2.0,91,0.00,,,0.01,Wunderground v.1.15,2013-10-31 05:20:00,
2013-10-31 00:25:00,32.6,30.3,29.81,West,281,0.0,2.0,91,0.00,,,0.01,Wunderground v.1.15,2013-10-31 05:25:00,
2013-10-31 00:35:00,32.3,30.0,29.81,West,281,0.0,2.0,91,0.00,,,0.01,Wunderground v.1.15,2013-10-31 05:35:00,
2013-10-31 00:40:00,32.3,30.0,29.81,West,281,1.0,1.0,91,0.00,,,0.01,Wunderground v.1.15,2013-10-31 05:40:00,
2013-10-31 00:50:00,32.5,30.2,29.81,West,281,0.0,2.0,91,0.00,,,0.01,Wunderground v.1.15,2013-10-31 05:50:00,
2013-10-31 01:00:00,32.2,29.9,29.81,West,281,0.0,2.0,91,0.00,,,0.01,Wunderground v.1.15,2013-10-31 06:00:00,
2013-10-31 01:10:00,32.2,29.9,29.80,West,281,0.0,2.0,91,0.00,,,0.00,Wunderground v.1.15,2013-10-31 06:10:00,
2013-10-31 01:15:00,32.1,29.8,29.80,West,281,0.0,2.0,91,0.00,,,0.00,Wunderground v.1.15,2013-10-31 06:15:00,
2013-10-31 01:20:00,31.9,29.6,29.80,West,281,0.0,2.0,91,0.00,,,0.00,Wunderground v.1.15,2013-10-31 06:20:00,
2013-10-31 01:30:00,31.8,29.5,29.80,West,281,0.0,2.0,91,0.00,,,0.00,Wunderground v.1.15,2013-10-31 06:30:00,
2013-10-31 01:40:00,32.0,29.7,29.80,West,281,0.0,2.0,91,0.00,,,0.00,Wunderground v.1.15,2013-10-31 06:40:00,
2013-10-31 01:50:00,31.7,29.4,29.79,West,281,0.0,2.0,91,0.00,,,0.00,Wunderground v.1.15,2013-10-31 06:50:00,
2013-10-31 01:55:00,31.6,29.3,29.78,West,281,0.0,2.0,91,0.00,,,0.00,Wunderground v.1.15,2013-10-31 06:55:00,
2013-10-31 02:00:00,31.7,29.4,29.78,West,281,0.0,2.0,91,0.00,,,0.00,Wunderground v.1.15,2013-10-31 07:00:00,
2013-10-31 02:10:00,31.6,29.3,29.78,West,281,1.0,1.0,91,0.00,,,0.00,Wunderground v.1.15,2013-10-31 07:10:00,
2013-10-31 02:20:00,32.0,29.7,29.77,West,281,1.0,2.0,91,0.00,,,0.00,Wunderground v.1.15,2013-10-31 07:20:00,
2013-10-31 02:30:00,31.6,29.3,29.76,West,281,2.0,3.0,91,0.00,,,0.00,Wunderground v.1.15,2013-10-31 07:30:00,
2013-10-31 02:35:00,31.4,29.1,29.76,West,281,3.0,3.0,91,0.00,,,0.00,Wunderground v.1.15,2013-10-31 07:35:00,
2013-10-31 02:40:00,31.4,29.1,29.76,West,281,3.0,4.0,91,0.00,,,0.00,Wunderground v.1.15,2013-10-31 07:40:00,
2013-10-31 02:50:00,32.7,30.6,29.75,West,281,5.0,6.0,92,0.00,,,0.00,Wunderground v.1.15,2013-10-31 07:50:00,
2013-10-31 03:00:00,33.2,31.1,29.75,West,281,6.0,7.0,92,0.00,,,0.00,Wunderground v.1.15,2013-10-31 08:00:00,
2013-10-31 03:10:00,33.4,31.1,29.73,WNW,298,7.0,7.0,91,0.00,,,0.00,Wunderground v.1.15,2013-10-31 08:10:00,
2013-10-31 03:15:00,33.5,31.2,29.73,NW,309,6.0,7.0,91,0.00,,,0.00,Wunderground v.1.15,2013-10-31 08:15:00,
2013-10-31 03:25:00,33.7,31.6,29.73,WNW,302,5.0,6.0,92,0.00,,,0.00,Wunderground v.1.15,2013-10-31 08:25:00,
2013-10-31 03:30:00,33.7,31.4,29.73,WNW,302,4.0,4.0,91,0.00,,,0.00,Wunderground v.1.15,2013-10-31 08:30:00,
2013-10-31 03:40:00,33.2,30.9,29.74,WNW,302,1.0,1.0,91,0.00,,,0.00,Wunderground v.1.15,2013-10-31 08:40:00,
2013-10-31 03:50:00,33.1,30.8,29.73,WNW,302,1.0,2.0,91,0.00,,,0.00,Wunderground v.1.15,2013-10-31 08:50:00,
2013-10-31 04:00:00,32.6,30.3,29.76,South,181,2.0,4.0,91,0.00,,,0.00,Wunderground v.1.15,2013-10-31 09:00:00,
2013-10-31 04:10:00,31.8,29.5,29.77,SSE,166,3.0,3.0,91,0.00,,,0.00,Wunderground v.1.15,2013-10-31 09:10:00,
2013-10-31 04:15:00,31.5,29.2,29.77,South,181,3.0,4.0,91,0.00,,,0.00,Wunderground v.1.15,2013-10-31 09:15:00,
2013-10-31 04:25:00,30.8,28.5,29.76,South,181,3.0,3.0,91,0.00,,,0.00,Wunderground v.1.15,2013-10-31 09:25:00,
2013-10-31 04:30:00,30.9,28.6,29.76,South,181,2.0,2.0,91,0.00,,,0.00,Wunderground v.1.15,2013-10-31 09:30:00,
2013-10-31 04:40:00,30.9,28.6,29.76,South,181,0.0,2.0,91,0.00,,,0.00,Wunderground v.1.15,2013-10-31 09:40:00,
2013-10-31 04:50:00,30.8,28.5,29.75,South,181,0.0,2.0,91,0.00,,,0.00,Wunderground v.1.15,2013-10-31 09:50:00,
2013-10-31 04:55:00,30.7,28.4,29.75,South,181,0.0,2.0,91,0.00,,,0.00,Wunderground v.1.15,2013-10-31 09:55:00,
2013-10-31 05:05:00,30.8,28.5,29.73,South,181,1.0,2.0,91,0.00,,,0.00,Wunderground v.1.15,2013-10-31 10:05:00,
2013-10-31 05:10:00,31.2,28.9,29.72,South,181,2.0,2.0,91,0.00,,,0.00,Wunderground v.1.15,2013-10-31 10:10:00,
2013-10-31 05:20:00,31.5,29.4,29.71,NW,304,2.0,4.0,92,0.00,,,0.00,Wunderground v.1.15,2013-10-31 10:20:00,
2013-10-31 05:30:00,31.8,29.5,29.72,NW,304,3.0,3.0,91,0.00,,,0.00,Wunderground v.1.15,2013-10-31 10:30:00,
2013-10-31 05:40:00,31.6,29.3,29.72,NW,304,1.0,1.0,91,0.00,,,0.00,Wunderground v.1.15,2013-10-31 10:40:00,
2013-10-31 05:45:00,31.4,29.1,29.72,NW,304,0.0,2.0,91,0.00,,,0.00,Wunderground v.1.15,2013-10-31 10:45:00,
2013-10-31 05:55:00,31.1,28.8,29.72,NW,304,1.0,3.0,91,0.00,,,0.00,Wunderground v.1.15,2013-10-31 10:55:00,
2013-10-31 06:00:00,31.4,29.1,29.72,NW,304,2.0,2.0,91,0.00,,,0.00,Wunderground v.1.15,2013-10-31 11:00:00,
2013-10-31 06:10:00,31.6,29.3,29.73,NW,304,2.0,4.0,91,0.00,,,0.00,Wunderground v.1.15,2013-10-31 11:10:00,
2013-10-31 06:20:00,31.8,29.5,29.73,NW,304,3.0,4.0,91,0.00,,,0.00,Wunderground v.1.15,2013-10-31 11:20:00,
2013-10-31 06:30:00,31.4,29.1,29.73,NW,304,4.0,5.0,91,0.00,,,0.00,Wunderground v.1.15,2013-10-31 11:30:00,
2013-10-31 06:35:00,31.2,28.9,29.73,NW,304,5.0,6.0,91,0.00,,,0.00,Wunderground v.1.15,2013-10-31 11:35:00,
2013-10-31 06:40:00,31.3,29.0,29.73,WNW,284,6.0,6.0,91,0.00,,,0.00,Wunderground v.1.15,2013-10-31 11:40:00,
2013-10-31 06:50:00,31.8,29.5,29.72,WNW,287,6.0,6.0,91,0.00,,,0.00,Wunderground v.1.15,2013-10-31 11:50:00,
2013-10-31 07:00:00,32.3,30.2,29.73,NW,304,4.0,4.0,92,0.00,,,0.00,Wunderground v.1.15,2013-10-31 12:00:00,
2013-10-31 07:10:00,32.6,30.5,29.72,WNW,286,3.0,3.0,92,0.00,,,0.00,Wunderground v.1.15,2013-10-31 12:10:00,
2013-10-31 07:20:00,32.1,29.8,29.72,WNW,286,0.0,4.0,91,0.00,,,0.00,Wunderground v.1.15,2013-10-31 12:20:00,
2013-10-31 07:25:00,31.8,29.5,29.72,WNW,286,0.0,4.0,91,0.00,,,0.00,Wunderground v.1.15,2013-10-31 12:25:00,
2013-10-31 07:35:00,31.4,29.1,29.72,West,281,2.0,4.0,91,0.00,,,0.00,Wunderground v.1.15,2013-10-31 12:35:00,
2013-10-31 07:40:00,31.4,29.1,29.72,West,264,3.0,4.0,91,0.00,,,0.00,Wunderground v.1.15,2013-10-31 12:40:00,
2013-10-31 07:50:00,31.5,29.2,29.71,West,269,4.0,5.0,91,0.00,,,0.00,Wunderground v.1.15,2013-10-31 12:50:00,
2013-10-31 08:00:00,31.5,29.2,29.71,West,275,5.0,5.0,91,0.00,,,0.00,Wunderground v.1.15,2013-10-31 13:00:00,
2013-10-31 08:10:00,31.5,29.2,29.71,West,275,4.0,4.0,91,0.00,,,0.00,Wunderground v.1.15,2013-10-31 13:10:00,
2013-10-31 08:20:00,31.5,29.2,29.71,WNW,296,2.0,2.0,91,0.00,,,0.00,Wunderground v.1.15,2013-10-31 13:20:00,
2013-10-31 08:25:00,31.4,29.1,29.71,WNW,296,1.0,4.0,91,0.00,,,0.00,Wunderground v.1.15,2013-10-31 13:25:00,
2013-10-31 08:35:00,30.8,28.5,29.71,SW,229,2.0,4.0,91,0.00,,,0.00,Wunderground v.1.15,2013-10-31 13:35:00,
2013-10-31 08:40:00,30.6,28.3,29.71,SW,230,2.0,2.0,91,0.00,,,0.00,Wunderground v.1.15,2013-10-31 13:40:00,
2013-10-31 08:50:00,30.7,28.4,29.72,SW,234,2.0,2.0,91,0.00,,,0.00,Wunderground v.1.15,2013-10-31 13:50:00,
2013-10-31 09:00:00,31.4,29.3,29.71,SW,234,2.0,4.0,92,0.00,,,0.00,Wunderground v.1.15,2013-10-31 14:00:00,
2013-10-31 09:05:00,32.0,29.9,29.71,SW,234,2.0,4.0,92,0.00,,,0.00,Wunderground v.1.15,2013-10-31 14:05:00,
2013-10-31 09:15:00,32.5,30.4,29.72,WSW,243,2.0,4.0,92,0.00,,,0.00,Wunderground v.1.15,2013-10-31 14:15:00,
2013-10-31 09:20:00,32.7,30.6,29.71,SW,227,3.0,4.0,92,0.00,,,0.01,Wunderground v.1.15,2013-10-31 14:20:00,
2013-10-31 09:30:00,33.2,31.1,29.72,SW,227,2.0,4.0,92,0.00,,,0.01,Wunderground v.1.15,2013-10-31 14:30:00,
2013-10-31 09:40:00,33.5,31.4,29.72,SW,227,3.0,4.0,92,0.00,,,0.01,Wunderground v.1.15,2013-10-31 14:40:00,
2013-10-31 09:45:00,33.8,31.7,29.72,SW,227,3.0,4.0,92,0.00,,,0.01,Wunderground v.1.15,2013-10-31 14:45:00,
2013-10-31 09:55:00,34.8,32.7,29.72,NW,304,2.0,5.0,92,0.00,,,0.01,Wunderground v.1.15,2013-10-31 14:55:00,
2013-10-31 10:00:00,35.9,33.8,29.71,West,263,3.0,4.0,92,0.00,,,0.01,Wunderground v.1.15,2013-10-31 15:00:00,
2013-10-31 10:10:00,37.5,35.4,29.71,West,263,4.0,4.0,92,0.00,,,0.01,Wunderground v.1.15,2013-10-31 15:10:00,
2013-10-31 10:20:00,38.6,36.5,29.71,West,267,4.0,4.0,92,0.00,,,0.01,Wunderground v.1.15,2013-10-31 15:20:00,
2013-10-31 10:30:00,39.7,37.6,29.70,West,275,3.0,4.0,92,0.00,,,0.01,Wunderground v.1.15,2013-10-31 15:30:00,
2013-10-31 10:40:00,41.0,38.9,29.70,West,278,3.0,4.0,92,0.00,,,0.01,Wunderground v.1.15,2013-10-31 15:40:00,
2013-10-31 10:50:00,42.3,40.1,29.69,WNW,287,4.0,7.0,92,0.00,,,0.01,Wunderground v.1.15,2013-10-31 15:50:00,
2013-10-31 11:00:00,43.9,41.4,29.69,WNW,291,6.0,8.0,91,0.00,,,0.01,Wunderground v.1.15,2013-10-31 16:00:00,
2013-10-31 11:10:00,45.3,42.5,29.68,WNW,295,7.0,7.0,90,0.00,,,0.01,Wunderground v.1.15,2013-10-31 16:10:00,
2013-10-31 11:20:00,46.3,41.7,29.68,WNW,285,8.0,9.0,84,0.00,,,0.02,Wunderground v.1.15,2013-10-31 16:20:00,
2013-10-31 11:30:00,47.5,41.3,29.68,WNW,286,9.0,13.0,79,0.00,,,0.02,Wunderground v.1.15,2013-10-31 16:30:00,
2013-10-31 11:40:00,48.6,40.3,29.67,NW,304,12.0,12.0,73,0.00,,,0.02,Wunderground v.1.15,2013-10-31 16:40:00,
2013-10-31 11:45:00,49.4,41.5,29.67,NW,306,11.0,12.0,74,0.00,,,0.02,Wunderground v.1.15,2013-10-31 16:45:00,
2013-10-31 11:55:00,50.0,40.6,29.67,NW,313,10.0,12.0,70,0.00,,,0.02,Wunderground v.1.15,2013-10-31 16:55:00,
2013-10-31 12:00:00,50.3,40.5,29.67,WNW,286,12.0,12.0,69,0.00,,,0.02,Wunderground v.1.15,2013-10-31 17:00:00,
2013-10-31 12:10:00,50.8,39.5,29.66,NW,323,14.0,14.0,65,0.00,,,0.02,Wunderground v.1.15,2013-10-31 17:10:00,
2013-10-31 12:20:00,50.8,39.1,29.66,NW,319,15.0,18.0,64,0.00,,,0.02,Wunderground v.1.15,2013-10-31 17:20:00,
2013-10-31 12:30:00,50.8,39.1,29.66,WNW,283,14.0,18.0,64,0.00,,,0.02,Wunderground v.1.15,2013-10-31 17:30:00,
2013-10-31 12:40:00,50.8,38.7,29.65,WNW,297,17.0,17.0,63,0.00,,,0.02,Wunderground v.1.15,2013-10-31 17:40:00,
2013-10-31 12:45:00,51.1,38.5,29.65,West,280,16.0,22.0,62,0.00,,,0.02,Wunderground v.1.15,2013-10-31 17:45:00,
2013-10-31 12:50:00,51.3,38.7,29.65,WNW,298,17.0,18.0,62,0.00,,,0.02,Wunderground v.1.15,2013-10-31 17:50:00,
2013-10-31 13:00:00,51.0,38.4,29.64,WNW,294,18.0,24.0,62,0.00,,,0.02,Wunderground v.1.15,2013-10-31 18:00:00,
2013-10-31 13:10:00,50.6,38.1,29.63,NW,305,18.0,18.0,62,0.00,,,0.02,Wunderground v.1.15,2013-10-31 18:10:00,
2013-10-31 13:20:00,51.2,38.6,29.62,WNW,282,17.0,17.0,62,0.00,,,0.02,Wunderground v.1.15,2013-10-31 18:20:00,
2013-10-31 13:30:00,51.4,38.4,29.62,WNW,298,18.0,19.0,61,0.00,,,0.02,Wunderground v.1.15,2013-10-31 18:30:00,
2013-10-31 13:35:00,51.2,37.8,29.62,West,281,17.0,19.0,60,0.00,,,0.02,Wunderground v.1.15,2013-10-31 18:35:00,
2013-10-31 13:40:00,51.2,37.8,29.62,WNW,293,17.0,18.0,60,0.00,,,0.02,Wunderground v.1.15,2013-10-31 18:40:00,
2013-10-31 13:50:00,50.8,37.8,29.62,WNW,286,17.0,17.0,61,0.00,,,0.02,Wunderground v.1.15,2013-10-31 18:50:00,
2013-10-31 14:00:00,51.3,37.4,29.61,NW,304,15.0,18.0,59,0.00,,,0.02,Wunderground v.1.15,2013-10-31 19:00:00,
2013-10-31 14:10:00,51.8,38.3,29.61,WNW,283,15.0,18.0,60,0.00,,,0.02,Wunderground v.1.15,2013-10-31 19:10:00,
2013-10-31 14:20:00,52.4,38.9,29.60,WNW,291,15.0,19.0,60,0.00,,,0.02,Wunderground v.1.15,2013-10-31 19:20:00,
2013-10-31 14:25:00,52.3,38.4,29.60,WNW,288,17.0,19.0,59,0.00,,,0.02,Wunderground v.1.15,2013-10-31 19:25:00,
2013-10-31 14:35:00,52.5,38.6,29.60,West,274,14.0,18.0,59,0.00,,,0.02,Wunderground v.1.15,2013-10-31 19:35:00,
2013-10-31 14:45:00,52.5,36.8,29.59,WNW,301,16.0,18.0,55,0.00,,,0.02,Wunderground v.1.15,2013-10-31 19:45:00,
2013-10-31 14:50:00,52.8,38.9,29.59,West,274,16.0,18.0,59,0.00,,,0.02,Wunderground v.1.15,2013-10-31 19:50:00,
2013-10-31 15:00:00,52.7,37.4,29.59,NW,322,17.0,18.0,56,0.00,,,0.02,Wunderground v.1.15,2013-10-31 20:00:00,
2013-10-31 15:10:00,53.2,37.4,29.59,WNW,284,16.0,16.0,55,0.00,,,0.02,Wunderground v.1.15,2013-10-31 20:10:00,
2013-10-31 15:15:00,53.4,37.6,29.59,WNW,302,14.0,18.0,55,0.00,,,0.02,Wunderground v.1.15,2013-10-31 20:15:00,
2013-10-31 15:20:00,53.3,37.1,29.59,WNW,294,14.0,18.0,54,0.00,,,0.02,Wunderground v.1.15,2013-10-31 20:20:00,
2013-10-31 15:25:00,53.3,37.1,29.59,West,271,16.0,18.0,54,0.00,,,0.02,Wunderground v.1.15,2013-10-31 20:25:00,
2013-10-31 15:30:00,53.4,37.2,29.58,WNW,290,16.0,18.0,54,0.00,,,0.02,Wunderground v.1.15,2013-10-31 20:30:00,
2013-10-31 15:40:00,53.8,37.1,29.58,WNW,296,15.0,18.0,53,0.00,,,0.02,Wunderground v.1.15,2013-10-31 20:40:00,
2013-10-31 15:50:00,54.5,36.7,29.58,NW,316,16.0,19.0,51,0.00,,,0.02,Wunderground v.1.15,2013-10-31 20:50:00,
2013-10-31 16:00:00,53.7,36.5,29.58,WNW,294,15.0,21.0,52,0.00,,,0.02,Wunderground v.1.15,2013-10-31 21:00:00,
2013-10-31 16:10:00,53.4,34.7,29.58,NNW,348,15.0,18.0,49,0.00,,,0.02,Wunderground v.1.15,2013-10-31 21:10:00,
2013-10-31 16:15:00,53.5,35.3,29.58,WNW,296,16.0,18.0,50,0.00,,,0.02,Wunderground v.1.15,2013-10-31 21:15:00,
2013-10-31 16:25:00,53.5,35.3,29.58,WNW,293,15.0,20.0,50,0.00,,,0.02,Wunderground v.1.15,2013-10-31 21:25:00,
2013-10-31 16:30:00,53.4,34.2,29.58,NW,313,17.0,17.0,48,0.00,,,0.02,Wunderground v.1.15,2013-10-31 21:30:00,
2013-10-31 16:40:00,53.2,34.5,29.58,NW,312,18.0,18.0,49,0.00,,,0.02,Wunderground v.1.15,2013-10-31 21:40:00,
2013-10-31 16:50:00,53.2,34.5,29.58,WNW,292,16.0,16.0,49,0.00,,,0.02,Wunderground v.1.15,2013-10-31 21:50:00,
2013-10-31 17:00:00,53.2,34.0,29.58,WNW,293,15.0,20.0,48,0.00,,,0.02,Wunderground v.1.15,2013-10-31 22:00:00,
2013-10-31 17:05:00,53.2,34.5,29.59,NNW,336,16.0,20.0,49,0.00,,,0.02,Wunderground v.1.15,2013-10-31 22:05:00,
2013-10-31 17:15:00,52.8,34.2,29.59,WNW,302,11.0,16.0,49,0.00,,,0.02,Wunderground v.1.15,2013-10-31 22:15:00,
2013-10-31 17:20:00,52.7,35.1,29.59,NW,308,10.0,18.0,51,0.00,,,0.02,Wunderground v.1.15,2013-10-31 22:20:00,
2013-10-31 17:30:00,52.4,34.8,29.59,WNW,302,9.0,9.0,51,0.00,,,0.02,Wunderground v.1.15,2013-10-31 22:30:00,
2013-10-31 17:40:00,52.1,35.5,29.59,NW,322,9.0,18.0,53,0.00,,,0.02,Wunderground v.1.15,2013-10-31 22:40:00,
2013-10-31 17:50:00,51.6,35.5,29.60,WNW,290,10.0,10.0,54,0.00,,,0.02,Wunderground v.1.15,2013-10-31 22:50:00,
2013-10-31 18:00:00,50.9,35.3,29.60,WNW,301,8.0,9.0,55,0.00,,,0.02,Wunderground v.1.15,2013-10-31 23:00:00,
2013-10-31 18:10:00,50.6,35.5,29.60,NNW,340,9.0,9.0,56,0.00,,,0.02,Wunderground v.1.15,2013-10-31 23:10:00,
2013-10-31 18:20:00,50.1,35.4,29.60,WNW,302,6.0,6.0,57,0.00,,,0.02,Wunderground v.1.15,2013-10-31 23:20:00,
2013-10-31 18:30:00,49.3,35.1,29.60,NW,320,5.0,19.0,58,0.00,,,0.02,Wunderground v.1.15,2013-10-31 23:30:00,
2013-10-31 18:40:00,48.4,35.1,29.61,NW,315,4.0,4.0,60,0.00,,,0.02,Wunderground v.1.15,2013-10-31 23:40:00,
2013-10-31 18:45:00,48.0,35.2,29.61,NW,312,3.0,19.0,61,0.00,,,0.02,Wunderground v.1.15,2013-10-31 23:45:00,
2013-10-31 19:05:00,46.4,34.9,29.61,NW,311,2.0,19.0,64,0.00,,,0.02,Wunderground v.1.15,2013-11-01 00:05:00,
2013-10-31 19:10:00,46.2,34.7,29.61,NW,312,2.0,2.0,64,0.00,,,0.02,Wunderground v.1.15,2013-11-01 00:10:00,
2013-10-31 19:20:00,45.9,34.8,29.61,NW,317,3.0,19.0,65,0.00,,,0.02,Wunderground v.1.15,2013-11-01 00:20:00,
2013-10-31 19:30:00,44.9,34.6,29.62,WNW,288,5.0,5.0,67,0.00,,,0.02,Wunderground v.1.15,2013-11-01 00:30:00,
2013-10-31 19:40:00,43.3,34.2,29.62,WNW,288,3.0,19.0,70,0.00,,,0.02,Wunderground v.1.15,2013-11-01 00:40:00,
2013-10-31 19:45:00,43.4,34.6,29.62,WNW,290,4.0,19.0,71,0.00,,,0.02,Wunderground v.1.15,2013-11-01 00:45:00,
2013-10-31 19:50:00,43.7,34.9,29.62,WNW,292,5.0,19.0,71,0.00,,,0.02,Wunderground v.1.15,2013-11-01 00:50:00,
2013-10-31 20:00:00,43.8,35.0,29.63,WNW,290,5.0,5.0,71,0.00,,,0.02,Wunderground v.1.15,2013-11-01 01:00:00,
2013-10-31 20:20:00,44.7,35.5,29.63,WNW,298,6.0,19.0,70,0.00,,,0.02,Wunderground v.1.15,2013-11-01 01:20:00,
2013-10-31 20:30:00,45.6,36.0,29.63,NNW,334,9.0,19.0,69,0.00,,,0.02,Wunderground v.1.15,2013-11-01 01:30:00,
2013-10-31 20:40:00,46.2,36.2,29.63,WNW,298,9.0,9.0,68,0.00,,,0.02,Wunderground v.1.15,2013-11-01 01:40:00,
2013-10-31 20:50:00,46.6,36.6,29.63,WNW,288,8.0,19.0,68,0.00,,,0.02,Wunderground v.1.15,2013-11-01 01:50:00,
2013-10-31 20:55:00,46.5,36.5,29.64,WNW,292,9.0,19.0,68,0.00,,,0.02,Wunderground v.1.15,2013-11-01 01:55:00,
2013-10-31 21:05:00,46.0,36.0,29.64,WNW,293,8.0,19.0,68,0.00,,,0.02,Wunderground v.1.15,2013-11-01 02:05:00,
2013-10-31 21:10:00,45.8,35.8,29.64,WNW,287,7.0,7.0,68,0.00,,,0.02,Wunderground v.1.15,2013-11-01 02:10:00,
2013-10-31 21:20:00,45.2,36.4,29.64,WNW,285,7.0,19.0,71,0.00,,,0.02,Wunderground v.1.15,2013-11-01 02:20:00,
2013-10-31 21:30:00,45.3,36.8,29.64,WNW,288,8.0,8.0,72,0.00,,,0.02,Wunderground v.1.15,2013-11-01 02:30:00,
2013-10-31 21:40:00,45.6,37.1,29.64,WNW,290,8.0,8.0,72,0.00,,,0.02,Wunderground v.1.15,2013-11-01 02:40:00,
2013-10-31 21:50:00,45.4,36.9,29.64,WNW,291,7.0,7.0,72,0.00,,,0.02,Wunderground v.1.15,2013-11-01 02:50:00,
2013-10-31 22:00:00,44.8,36.7,29.65,West,277,5.0,19.0,73,0.00,,,0.02,Wunderground v.1.15,2013-11-01 03:00:00,
2013-10-31 22:05:00,44.5,36.7,29.64,West,277,5.0,19.0,74,0.00,,,0.02,Wunderground v.1.15,2013-11-01 03:05:00,
2013-10-31 22:15:00,44.3,36.9,29.65,WNW,290,5.0,19.0,75,0.00,,,0.02,Wunderground v.1.15,2013-11-01 03:15:00,
2013-10-31 22:20:00,44.2,36.8,29.65,WNW,286,5.0,5.0,75,0.00,,,0.02,Wunderground v.1.15,2013-11-01 03:20:00,
2013-10-31 22:30:00,44.0,36.9,29.65,WNW,286,4.0,19.0,76,0.00,,,0.02,Wunderground v.1.15,2013-11-01 03:30:00,
2013-10-31 22:40:00,43.7,37.0,29.66,WNW,286,5.0,19.0,77,0.00,,,0.02,Wunderground v.1.15,2013-11-01 03:40:00,
2013-10-31 22:50:00,43.6,36.9,29.66,West,279,6.0,19.0,77,0.00,,,0.02,Wunderground v.1.15,2013-11-01 03:50:00,
2013-10-31 23:00:00,43.6,37.2,29.66,West,277,6.0,19.0,78,0.00,,,0.02,Wunderground v.1.15,2013-11-01 04:00:00,
2013-10-31 23:05:00,43.5,37.1,29.66,West,277,6.0,19.0,78,0.00,,,0.02,Wunderground v.1.15,2013-11-01 04:05:00,
2013-10-31 23:10:00,43.5,37.1,29.66,West,278,6.0,19.0,78,0.00,,,0.02,Wunderground v.1.15,2013-11-01 04:10:00,
2013-10-31 23:15:00,43.2,36.8,29.66,West,271,7.0,19.0,78,0.00,,,0.02,Wunderground v.1.15,2013-11-01 04:15:00,
2013-10-31 23:25:00,42.4,36.0,29.66,West,272,5.0,19.0,78,0.00,,,0.02,Wunderground v.1.15,2013-11-01 04:25:00,
2013-10-31 23:30:00,41.9,35.5,29.66,West,272,5.0,19.0,78,0.00,,,0.02,Wunderground v.1.15,2013-11-01 04:30:00,
2013-10-31 23:40:00,41.0,35.0,29.66,West,272,4.0,4.0,79,0.00,,,0.02,Wunderground v.1.15,2013-11-01 04:40:00,
2013-10-31 23:50:00,40.5,34.8,29.66,West,272,3.0,19.0,80,0.00,,,0.02,Wunderground v.1.15,2013-11-01 04:50:00,